createdAt,value
2018-07-19T00:00:08.869Z,22.07
2018-07-19T00:03:33.303Z,21.94
2018-07-19T00:06:57.781Z,21.96
2018-07-19T00:10:22.209Z,21.61
2018-07-19T00:13:46.657Z,21.58
2018-07-19T00:17:11.088Z,21.51
2018-07-19T00:20:35.546Z,21.50
2018-07-19T00:24:00.035Z,21.42
2018-07-19T00:27:24.983Z,21.34
2018-07-19T00:30:49.411Z,21.25
2018-07-19T00:34:13.869Z,21.17
2018-07-19T00:37:38.296Z,21.46
2018-07-19T00:41:02.937Z,21.43
2018-07-19T00:44:27.392Z,21.23
2018-07-19T00:47:51.859Z,21.31
2018-07-19T00:51:16.322Z,21.12
2018-07-19T00:54:40.783Z,20.99
2018-07-19T00:58:05.368Z,20.88
2018-07-19T01:01:29.891Z,20.80
2018-07-19T01:04:54.325Z,20.60
2018-07-19T01:08:18.755Z,20.67
2018-07-19T01:11:43.219Z,20.56
2018-07-19T01:15:07.716Z,20.66
2018-07-19T01:18:32.208Z,20.59
2018-07-19T01:21:56.659Z,20.39
2018-07-19T01:25:21.092Z,20.40
2018-07-19T01:28:45.543Z,20.31
2018-07-19T01:32:10.551Z,20.19
2018-07-19T01:35:34.997Z,20.20
2018-07-19T01:38:59.424Z,20.39
2018-07-19T01:42:36.066Z,20.39
2018-07-19T01:46:00.540Z,20.24
2018-07-19T01:49:24.981Z,20.17
2018-07-19T01:52:49.425Z,20.18
2018-07-19T01:56:13.908Z,20.10
2018-07-19T01:59:38.354Z,20.08
2018-07-19T02:03:02.811Z,20.07
2018-07-19T02:06:27.300Z,19.98
2018-07-19T02:09:51.784Z,19.95
2018-07-19T02:13:16.226Z,19.93
2018-07-19T02:16:40.676Z,19.83
2018-07-19T02:20:05.193Z,19.88
2018-07-19T02:23:29.737Z,19.98
2018-07-19T02:26:54.210Z,19.97
2018-07-19T02:30:18.751Z,19.81
2018-07-19T02:33:43.190Z,19.93
2018-07-19T02:37:07.692Z,19.87
2018-07-19T02:40:32.183Z,19.80
2018-07-19T02:43:56.707Z,19.76
2018-07-19T02:47:21.115Z,19.65
2018-07-19T02:50:45.568Z,19.62
2018-07-19T02:54:10.176Z,19.60
2018-07-19T02:57:34.655Z,19.38
2018-07-19T03:00:59.125Z,19.38
2018-07-19T03:04:23.570Z,19.24
2018-07-19T03:07:48.101Z,19.22
2018-07-19T03:11:12.434Z,19.23
2018-07-19T03:14:36.875Z,19.23
2018-07-19T03:18:01.302Z,19.12
2018-07-19T03:21:25.805Z,19.11
2018-07-19T03:24:50.282Z,19.16
2018-07-19T03:28:14.733Z,19.15
2018-07-19T03:31:39.193Z,19.07
2018-07-19T03:35:03.651Z,19.02
2018-07-19T03:38:28.125Z,18.99
2018-07-19T03:41:52.570Z,18.82
2018-07-19T03:45:17.035Z,18.82
2018-07-19T03:48:41.470Z,19.06
2018-07-19T03:52:06.035Z,19.05
2018-07-19T03:55:30.505Z,19.13
2018-07-19T03:58:55.014Z,19.24
2018-07-19T04:02:19.439Z,19.41
2018-07-19T04:05:43.873Z,19.49
2018-07-19T04:09:08.862Z,19.82
2018-07-19T04:12:33.299Z,19.90
2018-07-19T04:15:57.723Z,20.03
2018-07-19T04:19:22.163Z,20.11
2018-07-19T04:22:46.692Z,20.08
2018-07-19T04:26:11.336Z,20.25
2018-07-19T04:29:35.790Z,20.27
2018-07-19T04:33:00.248Z,20.40
2018-07-19T04:36:24.714Z,20.43
2018-07-19T04:39:49.237Z,20.39
2018-07-19T04:43:13.711Z,20.44
2018-07-19T04:46:38.195Z,20.39
2018-07-19T04:50:02.622Z,20.60
2018-07-19T04:53:27.060Z,20.69
2018-07-19T04:56:51.484Z,20.90
2018-07-19T05:00:15.971Z,21.06
2018-07-19T05:03:40.436Z,21.19
2018-07-19T05:07:04.917Z,21.31
2018-07-19T05:10:29.415Z,21.32
2018-07-19T05:13:53.910Z,21.44
2018-07-19T05:17:18.358Z,21.61
2018-07-19T05:20:42.866Z,21.78
2018-07-19T05:24:07.476Z,21.97
2018-07-19T05:27:31.918Z,22.18
2018-07-19T05:30:56.389Z,22.37
2018-07-19T05:34:20.862Z,22.36
2018-07-19T05:37:45.339Z,22.58
2018-07-19T05:41:09.945Z,22.80
2018-07-19T05:44:34.389Z,23.00
2018-07-19T05:47:58.864Z,23.16
2018-07-19T05:51:23.361Z,23.35
2018-07-19T05:54:47.882Z,23.46
2018-07-19T05:58:12.367Z,23.68
2018-07-19T06:01:36.763Z,23.78
2018-07-19T06:05:01.231Z,23.88
2018-07-19T06:08:25.724Z,24.10
2018-07-19T06:11:50.196Z,24.04
2018-07-19T06:15:14.744Z,24.36
2018-07-19T06:18:39.292Z,24.41
2018-07-19T06:22:03.723Z,24.45
2018-07-19T06:25:28.197Z,24.53
2018-07-19T06:28:52.644Z,24.50
2018-07-19T06:32:17.196Z,24.41
2018-07-19T06:35:41.782Z,24.60
2018-07-19T06:39:08.455Z,24.85
2018-07-19T06:42:32.932Z,24.70
2018-07-19T06:45:57.465Z,24.97
2018-07-19T06:49:21.947Z,25.01
2018-07-19T06:52:46.401Z,24.64
2018-07-19T06:56:10.893Z,24.48
2018-07-19T06:59:35.397Z,24.59
2018-07-19T07:02:59.847Z,24.55
2018-07-19T07:06:24.306Z,24.63
2018-07-19T07:09:48.769Z,24.81
2018-07-19T07:13:13.275Z,24.90
2018-07-19T07:16:37.799Z,25.11
2018-07-19T07:20:02.255Z,25.47
2018-07-19T07:23:26.739Z,25.65
2018-07-19T07:26:51.210Z,26.00
2018-07-19T07:30:15.742Z,25.95
2018-07-19T07:33:40.240Z,26.25
2018-07-19T07:37:04.687Z,26.40
2018-07-19T07:40:29.180Z,26.73
2018-07-19T07:43:53.702Z,26.90
2018-07-19T07:47:18.229Z,27.09
2018-07-19T07:50:42.761Z,26.45
2018-07-19T07:54:07.230Z,26.71
2018-07-19T07:57:31.684Z,27.04
2018-07-19T08:00:56.164Z,27.58
2018-07-19T08:04:20.654Z,27.71
2018-07-19T08:07:45.180Z,27.80
2018-07-19T08:11:09.676Z,27.65
2018-07-19T08:14:34.243Z,27.16
2018-07-19T08:17:58.720Z,27.18
2018-07-19T08:21:23.171Z,26.97
2018-07-19T08:24:47.628Z,26.78
2018-07-19T08:28:12.116Z,26.57
2018-07-19T08:31:36.581Z,26.48
2018-07-19T08:35:01.088Z,26.13
2018-07-19T08:38:25.585Z,26.52
2018-07-19T08:41:50.052Z,26.38
2018-07-19T08:45:14.506Z,26.64
2018-07-19T08:48:38.948Z,27.00
2018-07-19T08:52:03.548Z,27.06
2018-07-19T08:55:27.998Z,27.17
2018-07-19T08:58:52.499Z,27.12
2018-07-19T09:02:17.085Z,27.48
2018-07-19T09:05:41.519Z,27.66
2018-07-19T09:09:09.094Z,28.04
2018-07-19T09:12:33.514Z,27.86
2018-07-19T09:15:57.974Z,28.03
2018-07-19T09:19:22.502Z,27.93
2018-07-19T09:22:46.961Z,27.80
2018-07-19T09:26:11.558Z,27.59
2018-07-19T09:29:35.995Z,27.93
2018-07-19T09:33:00.489Z,27.97
2018-07-19T09:36:24.969Z,28.61
2018-07-19T09:39:49.388Z,28.61
2018-07-19T09:43:13.871Z,29.04
2018-07-19T09:46:38.325Z,29.26
2018-07-19T09:50:02.792Z,29.44
2018-07-19T09:53:27.215Z,29.38
2018-07-19T09:56:51.667Z,29.53
2018-07-19T10:00:20.189Z,29.24
2018-07-19T10:03:44.356Z,29.55
2018-07-19T10:07:08.831Z,29.37
2018-07-19T10:10:33.273Z,29.13
2018-07-19T10:13:57.698Z,29.25
2018-07-19T10:17:22.215Z,29.28
2018-07-19T10:20:46.682Z,29.96
2018-07-19T10:24:11.195Z,28.97
2018-07-19T10:27:35.619Z,29.04
2018-07-19T10:31:00.092Z,29.31
2018-07-19T10:34:24.589Z,30.05
2018-07-19T10:37:49.016Z,30.94
2018-07-19T10:41:13.474Z,32.18
2018-07-19T10:44:37.922Z,33.54
2018-07-19T10:48:02.459Z,34.09
2018-07-19T10:51:26.911Z,32.09
2018-07-19T10:54:51.330Z,32.24
2018-07-19T10:58:15.767Z,31.84
2018-07-19T11:01:40.221Z,33.45
2018-07-19T11:05:05.092Z,36.16
2018-07-19T11:08:29.571Z,38.52
2018-07-19T11:11:54.043Z,37.16
2018-07-19T11:15:18.507Z,35.10
2018-07-19T11:18:42.989Z,34.15
2018-07-19T11:22:07.525Z,34.60
2018-07-19T11:25:31.988Z,37.58
2018-07-19T11:28:56.425Z,38.65
2018-07-19T11:32:20.863Z,41.15
2018-07-19T11:35:45.330Z,42.92
2018-07-19T11:39:10.153Z,43.76
2018-07-19T11:42:34.594Z,43.97
2018-07-19T11:45:59.027Z,43.88
2018-07-19T11:49:23.625Z,42.92
2018-07-19T11:52:48.053Z,41.57
2018-07-19T11:56:12.541Z,41.26
2018-07-19T11:59:36.962Z,40.87
2018-07-19T12:03:01.449Z,43.13
2018-07-19T12:06:25.903Z,42.40
2018-07-19T12:09:50.361Z,42.73
2018-07-19T12:13:14.799Z,42.67
2018-07-19T12:16:39.245Z,44.74
2018-07-19T12:20:03.700Z,45.13
2018-07-19T12:23:28.130Z,43.73
2018-07-19T12:26:52.873Z,43.96
2018-07-19T12:30:17.277Z,43.03
2018-07-19T12:33:41.704Z,42.32
2018-07-19T12:37:06.140Z,40.67
2018-07-19T12:40:30.703Z,42.28
2018-07-19T12:43:55.149Z,43.87
2018-07-19T12:47:19.591Z,44.14
2018-07-19T12:50:44.049Z,43.10
2018-07-19T12:54:08.539Z,41.21
2018-07-19T12:57:32.985Z,41.32
2018-07-19T13:00:57.424Z,42.33
2018-07-19T13:04:21.846Z,43.89
2018-07-19T13:07:46.287Z,45.19
2018-07-19T13:11:10.826Z,45.16
2018-07-19T13:14:41.955Z,44.76
2018-07-19T13:18:06.395Z,44.41
2018-07-19T13:21:30.900Z,44.96
2018-07-19T13:24:55.340Z,44.89
2018-07-19T13:28:19.867Z,43.92
2018-07-19T13:31:44.338Z,43.46
2018-07-19T13:35:08.792Z,42.39
2018-07-19T13:38:33.212Z,43.06
2018-07-19T13:41:57.664Z,45.10
2018-07-19T13:45:22.115Z,45.18
2018-07-19T13:48:46.566Z,44.89
2018-07-19T13:52:11.096Z,44.59
2018-07-19T13:55:35.499Z,43.28
2018-07-19T13:58:59.982Z,42.99
2018-07-19T14:02:24.497Z,43.56
2018-07-19T14:05:48.939Z,43.29
2018-07-19T14:09:15.403Z,43.27
2018-07-19T14:12:39.852Z,41.90
2018-07-19T14:16:04.361Z,40.26
2018-07-19T14:19:28.816Z,39.90
2018-07-19T14:22:53.263Z,38.75
2018-07-19T14:26:17.735Z,38.43
2018-07-19T14:29:42.184Z,37.41
2018-07-19T14:33:06.853Z,37.01
2018-07-19T14:36:31.333Z,36.27
2018-07-19T14:39:55.769Z,36.66
2018-07-19T14:43:20.254Z,36.23
2018-07-19T14:46:44.693Z,35.81
2018-07-19T14:50:09.111Z,37.01
2018-07-19T14:53:33.507Z,37.35
2018-07-19T14:56:57.960Z,36.53
2018-07-19T15:00:22.396Z,36.27
2018-07-19T15:03:46.800Z,36.09
2018-07-19T15:07:11.258Z,36.03
2018-07-19T15:10:35.698Z,38.38
2018-07-19T15:14:00.147Z,38.86
2018-07-19T15:17:24.568Z,38.89
2018-07-19T15:20:49.038Z,38.41
2018-07-19T15:24:13.461Z,37.50
2018-07-19T15:27:37.886Z,36.90
2018-07-19T15:31:02.317Z,37.09
2018-07-19T15:34:26.783Z,36.06
2018-07-19T15:37:51.232Z,36.15
2018-07-19T15:41:15.684Z,36.25
2018-07-19T15:44:40.111Z,35.89
2018-07-19T15:48:04.663Z,35.46
2018-07-19T15:51:29.085Z,36.83
2018-07-19T15:54:53.525Z,39.36
2018-07-19T15:58:18.023Z,40.97
2018-07-19T16:01:42.474Z,42.13
2018-07-19T16:05:07.082Z,43.26
2018-07-19T16:08:31.537Z,42.71
2018-07-19T16:11:56.018Z,41.13
2018-07-19T16:15:20.442Z,41.95
2018-07-19T16:18:44.854Z,40.35
2018-07-19T16:22:09.310Z,39.63
2018-07-19T16:25:33.749Z,38.32
2018-07-19T16:28:58.206Z,37.04
2018-07-19T16:32:22.665Z,37.29
2018-07-19T16:35:47.116Z,36.82
2018-07-19T16:39:11.904Z,36.07
2018-07-19T16:42:36.329Z,36.24
2018-07-19T16:46:00.749Z,36.22
2018-07-19T16:49:25.170Z,35.87
2018-07-19T16:52:49.702Z,36.64
2018-07-19T16:56:14.141Z,37.46
2018-07-19T16:59:38.579Z,36.47
2018-07-19T17:03:03.013Z,36.05
2018-07-19T17:06:27.497Z,35.53
2018-07-19T17:09:51.925Z,35.47
2018-07-19T17:13:16.382Z,34.96
2018-07-19T17:16:40.833Z,34.47
2018-07-19T17:20:05.551Z,34.63
2018-07-19T17:23:30.361Z,34.40
2018-07-19T17:26:54.765Z,34.29
2018-07-19T17:30:19.245Z,34.44
2018-07-19T17:33:43.704Z,34.85
2018-07-19T17:37:08.137Z,34.86
2018-07-19T17:40:32.639Z,34.35
2018-07-19T17:43:57.055Z,34.04
2018-07-19T17:47:21.550Z,33.88
2018-07-19T17:50:46.042Z,33.42
2018-07-19T17:54:10.480Z,33.52
2018-07-19T17:57:34.949Z,33.54
2018-07-19T18:00:59.404Z,33.02
2018-07-19T18:04:23.926Z,32.98
2018-07-19T18:07:48.497Z,32.97
2018-07-19T18:11:12.937Z,32.76
2018-07-19T18:14:37.430Z,32.51
2018-07-19T18:18:01.887Z,32.47
2018-07-19T18:21:26.338Z,32.22
2018-07-19T18:24:50.855Z,31.98
2018-07-19T18:28:15.313Z,31.66
2018-07-19T18:31:39.758Z,31.47
2018-07-19T18:35:04.236Z,31.51
2018-07-19T18:38:28.675Z,31.21
2018-07-19T18:41:53.120Z,31.07
2018-07-19T18:45:17.555Z,30.83
2018-07-19T18:48:41.989Z,30.52
2018-07-19T18:52:06.532Z,30.50
2018-07-19T18:55:30.990Z,30.24
2018-07-19T18:58:55.410Z,29.98
2018-07-19T19:02:20.915Z,29.75
2018-07-19T19:05:45.386Z,29.46
2018-07-19T19:09:11.247Z,29.45
2018-07-19T19:12:35.713Z,29.42
2018-07-19T19:16:00.201Z,29.08
2018-07-19T19:19:24.649Z,28.99
2018-07-19T19:22:49.090Z,28.79
2018-07-19T19:26:13.536Z,28.60
2018-07-19T19:29:38.028Z,28.36
2018-07-19T19:33:02.480Z,28.03
2018-07-19T19:36:26.970Z,27.96
2018-07-19T19:39:51.438Z,27.78
2018-07-19T19:43:15.896Z,27.79
2018-07-19T19:46:40.329Z,27.72
2018-07-19T19:50:04.967Z,27.45
2018-07-19T19:53:29.434Z,27.51
2018-07-19T19:56:54.742Z,27.38
2018-07-19T20:00:19.174Z,27.35
2018-07-19T20:03:43.578Z,27.37
2018-07-19T20:07:07.985Z,27.24
2018-07-19T20:10:32.492Z,27.17
2018-07-19T20:13:56.969Z,27.12
2018-07-19T20:17:21.417Z,27.05
2018-07-19T20:20:46.013Z,27.14
2018-07-19T20:24:10.433Z,27.10
2018-07-19T20:27:34.869Z,26.93
2018-07-19T20:30:59.326Z,26.89
2018-07-19T20:34:23.766Z,26.72
2018-07-19T20:37:48.222Z,26.63
2018-07-19T20:41:12.742Z,26.54
2018-07-19T20:44:37.485Z,26.50
2018-07-19T20:48:01.922Z,26.52
2018-07-19T20:51:26.346Z,26.42
2018-07-19T20:54:50.775Z,25.96
2018-07-19T20:58:15.213Z,26.12
2018-07-19T21:01:39.677Z,26.09
2018-07-19T21:05:04.199Z,25.99
2018-07-19T21:08:28.648Z,25.97
2018-07-19T21:11:53.088Z,25.84
2018-07-19T21:15:17.529Z,25.73
2018-07-19T21:18:41.961Z,25.71
2018-07-19T21:22:06.496Z,25.63
2018-07-19T21:25:30.933Z,25.51
2018-07-19T21:28:55.355Z,25.66
2018-07-19T21:32:19.783Z,25.36
2018-07-19T21:35:44.191Z,25.35
2018-07-19T21:39:11.093Z,25.30
2018-07-19T21:42:35.520Z,25.14
2018-07-19T21:45:59.956Z,24.99
2018-07-19T21:49:24.410Z,24.87
2018-07-19T21:52:48.854Z,24.70
2018-07-19T21:56:13.324Z,24.63
2018-07-19T21:59:37.724Z,24.62
2018-07-19T22:03:02.236Z,24.39
2018-07-19T22:06:26.671Z,24.51
2018-07-19T22:09:51.067Z,24.30
2018-07-19T22:13:15.525Z,24.35
2018-07-19T22:16:40.940Z,24.26
2018-07-19T22:20:05.552Z,24.12
2018-07-19T22:23:29.995Z,24.01
2018-07-19T22:26:54.418Z,24.06
2018-07-19T22:30:18.869Z,24.06
2018-07-19T22:33:43.296Z,23.89
2018-07-19T22:37:07.712Z,23.83
2018-07-19T22:40:32.192Z,23.78
2018-07-19T22:43:56.647Z,23.66
2018-07-19T22:47:21.096Z,23.55
2018-07-19T22:50:45.254Z,23.36
2018-07-19T22:54:09.682Z,23.42
2018-07-19T22:57:34.107Z,23.06
2018-07-19T23:00:58.511Z,23.08
2018-07-19T23:04:22.923Z,22.89
2018-07-19T23:07:47.359Z,22.81
2018-07-19T23:11:11.773Z,22.83
2018-07-19T23:14:36.205Z,22.81
2018-07-19T23:18:00.666Z,22.66
2018-07-19T23:21:25.094Z,22.61
2018-07-19T23:24:49.546Z,22.53
2018-07-19T23:28:13.992Z,22.53
2018-07-19T23:31:38.507Z,22.36
2018-07-19T23:35:02.965Z,22.39
2018-07-19T23:39:31.242Z,22.35
2018-07-19T23:43:02.826Z,22.16
2018-07-19T23:46:31.377Z,22.11
2018-07-19T23:49:55.792Z,22.11
2018-07-19T23:53:20.284Z,22.16
2018-07-19T23:56:44.730Z,21.95
